sensor_id;sensor_type;location;lat;lon;timestamp;temperature;humidity
32865;DHT22;19219;44.500;11.188;2023-02-28T00:00:18;4.50;99.90
32865;DHT22;19219;44.500;11.188;2023-02-28T00:02:45;4.50;99.90
32865;DHT22;19219;44.500;11.188;2023-02-28T00:05:12;4.60;99.90
32865;DHT22;19219;44.500;11.188;2023-02-28T00:07:38;4.60;99.90
32865;DHT22;19219;44.500;11.188;2023-02-28T00:10:10;4.60;99.90
32865;DHT22;19219;44.500;11.188;2023-02-28T00:12:37;4.60;99.90
32865;DHT22;19219;44.500;11.188;2023-02-28T00:15:08;4.60;99.90
32865;DHT22;19219;44.500;11.188;2023-02-28T00:17:34;4.70;99.90
32865;DHT22;19219;44.500;11.188;2023-02-28T00:20:01;4.70;99.90
32865;DHT22;19219;44.500;11.188;2023-02-28T00:22:27;4.70;99.90
32865;DHT22;19219;44.500;11.188;2023-02-28T00:24:53;4.80;99.90
32865;DHT22;19219;44.500;11.188;2023-02-28T00:27:19;4.70;99.90
32865;DHT22;19219;44.500;11.188;2023-02-28T00:29:46;4.80;99.90
32865;DHT22;19219;44.500;11.188;2023-02-28T00:32:12;4.80;99.90
32865;DHT22;19219;44.500;11.188;2023-02-28T00:34:38;4.80;99.90
32865;DHT22;19219;44.500;11.188;2023-02-28T00:37:08;4.80;99.90
32865;DHT22;19219;44.500;11.188;2023-02-28T00:39:35;4.80;99.90
32865;DHT22;19219;44.500;11.188;2023-02-28T00:42:02;4.80;99.90
32865;DHT22;19219;44.500;11.188;2023-02-28T00:44:29;4.80;99.90
32865;DHT22;19219;44.500;11.188;2023-02-28T00:46:54;4.80;99.90
32865;DHT22;19219;44.500;11.188;2023-02-28T00:49:22;4.80;99.90
32865;DHT22;19219;44.500;11.188;2023-02-28T00:51:47;4.90;99.90
32865;DHT22;19219;44.500;11.188;2023-02-28T00:54:13;4.90;99.90
32865;DHT22;19219;44.500;11.188;2023-02-28T00:56:39;4.90;99.90
32865;DHT22;19219;44.500;11.188;2023-02-28T00:59:04;4.90;99.90
32865;DHT22;19219;44.500;11.188;2023-02-28T01:01:30;4.90;99.90
32865;DHT22;19219;44.500;11.188;2023-02-28T01:03:56;5.00;99.90
32865;DHT22;19219;44.500;11.188;2023-02-28T01:06:22;4.90;99.90
32865;DHT22;19219;44.500;11.188;2023-02-28T01:08:48;4.90;99.90
32865;DHT22;19219;44.500;11.188;2023-02-28T01:11:15;4.80;99.90
32865;DHT22;19219;44.500;11.188;2023-02-28T01:13:42;4.80;99.90
32865;DHT22;19219;44.500;11.188;2023-02-28T01:16:08;4.80;99.90
32865;DHT22;19219;44.500;11.188;2023-02-28T01:18:33;4.80;99.90
32865;DHT22;19219;44.500;11.188;2023-02-28T01:21:04;4.90;99.90
32865;DHT22;19219;44.500;11.188;2023-02-28T01:23:30;4.80;99.90
32865;DHT22;19219;44.500;11.188;2023-02-28T01:25:56;4.80;99.90
32865;DHT22;19219;44.500;11.188;2023-02-28T01:28:21;4.80;99.90
32865;DHT22;19219;44.500;11.188;2023-02-28T01:30:48;4.90;99.90
32865;DHT22;19219;44.500;11.188;2023-02-28T01:33:14;4.90;99.90
32865;DHT22;19219;44.500;11.188;2023-02-28T01:35:39;4.90;99.90
32865;DHT22;19219;44.500;11.188;2023-02-28T01:38:05;4.90;99.90
32865;DHT22;19219;44.500;11.188;2023-02-28T01:40:31;4.90;99.90
32865;DHT22;19219;44.500;11.188;2023-02-28T01:42:57;4.90;99.90
32865;DHT22;19219;44.500;11.188;2023-02-28T01:45:27;4.90;99.90
32865;DHT22;19219;44.500;11.188;2023-02-28T01:47:58;4.90;99.90
32865;DHT22;19219;44.500;11.188;2023-02-28T01:50:29;4.90;99.90
32865;DHT22;19219;44.500;11.188;2023-02-28T01:53:00;4.90;99.90
32865;DHT22;19219;44.500;11.188;2023-02-28T01:55:28;4.90;99.90
32865;DHT22;19219;44.500;11.188;2023-02-28T01:57:56;5.00;99.90
32865;DHT22;19219;44.500;11.188;2023-02-28T02:00:26;5.00;99.90
32865;DHT22;19219;44.500;11.188;2023-02-28T02:02:58;4.90;99.90
32865;DHT22;19219;44.500;11.188;2023-02-28T02:05:30;4.80;99.90
32865;DHT22;19219;44.500;11.188;2023-02-28T02:08:03;4.80;99.90
32865;DHT22;19219;44.500;11.188;2023-02-28T02:10:45;4.80;99.90
32865;DHT22;19219;44.500;11.188;2023-02-28T02:16:28;4.80;99.90
32865;DHT22;19219;44.500;11.188;2023-02-28T02:35:32;4.50;99.90
32865;DHT22;19219;44.500;11.188;2023-02-28T02:38:12;4.50;99.90
32865;DHT22;19219;44.500;11.188;2023-02-28T02:40:54;4.50;99.90
32865;DHT22;19219;44.500;11.188;2023-02-28T02:43:28;4.50;99.90
32865;DHT22;19219;44.500;11.188;2023-02-28T02:45:59;4.50;99.90
32865;DHT22;19219;44.500;11.188;2023-02-28T02:48:29;4.50;99.90
32865;DHT22;19219;44.500;11.188;2023-02-28T02:50:58;4.50;99.90
32865;DHT22;19219;44.500;11.188;2023-02-28T02:53:32;4.60;99.90
32865;DHT22;19219;44.500;11.188;2023-02-28T02:56:00;4.60;99.90
32865;DHT22;19219;44.500;11.188;2023-02-28T02:58:31;4.60;99.90
32865;DHT22;19219;44.500;11.188;2023-02-28T03:01:01;4.60;99.90
32865;DHT22;19219;44.500;11.188;2023-02-28T03:03:37;4.70;99.90
32865;DHT22;19219;44.500;11.188;2023-02-28T03:06:03;4.70;99.90
32865;DHT22;19219;44.500;11.188;2023-02-28T03:08:34;4.70;99.90
32865;DHT22;19219;44.500;11.188;2023-02-28T03:11:06;4.70;99.90
32865;DHT22;19219;44.500;11.188;2023-02-28T03:26:47;4.70;99.90
32865;DHT22;19219;44.500;11.188;2023-02-28T03:29:24;4.70;99.90
32865;DHT22;19219;44.500;11.188;2023-02-28T03:34:29;4.70;99.90
32865;DHT22;19219;44.500;11.188;2023-02-28T03:37:03;4.60;99.90
32865;DHT22;19219;44.500;11.188;2023-02-28T03:39:45;4.70;99.90
32865;DHT22;19219;44.500;11.188;2023-02-28T03:42:18;4.70;99.90
32865;DHT22;19219;44.500;11.188;2023-02-28T03:44:49;4.70;99.90
32865;DHT22;19219;44.500;11.188;2023-02-28T03:47:21;4.70;99.90
32865;DHT22;19219;44.500;11.188;2023-02-28T03:50:08;4.80;99.90
32865;DHT22;19219;44.500;11.188;2023-02-28T03:52:38;4.70;99.90
32865;DHT22;19219;44.500;11.188;2023-02-28T03:55:10;4.60;99.90
32865;DHT22;19219;44.500;11.188;2023-02-28T04:00:39;4.60;99.90
32865;DHT22;19219;44.500;11.188;2023-02-28T04:03:06;4.70;99.90
32865;DHT22;19219;44.500;11.188;2023-02-28T04:05:32;4.70;99.90
32865;DHT22;19219;44.500;11.188;2023-02-28T04:08:06;4.70;99.90
32865;DHT22;19219;44.500;11.188;2023-02-28T04:10:32;4.60;99.90
32865;DHT22;19219;44.500;11.188;2023-02-28T04:12:58;4.60;99.90
32865;DHT22;19219;44.500;11.188;2023-02-28T04:15:23;4.60;99.90
32865;DHT22;19219;44.500;11.188;2023-02-28T04:17:51;4.60;99.90
32865;DHT22;19219;44.500;11.188;2023-02-28T04:20:17;4.60;99.90
32865;DHT22;19219;44.500;11.188;2023-02-28T04:22:42;4.60;99.90
32865;DHT22;19219;44.500;11.188;2023-02-28T04:25:08;4.70;99.90
32865;DHT22;19219;44.500;11.188;2023-02-28T04:27:34;4.70;99.90
32865;DHT22;19219;44.500;11.188;2023-02-28T04:30:00;4.70;99.90
32865;DHT22;19219;44.500;11.188;2023-02-28T04:32:26;4.70;99.90
32865;DHT22;19219;44.500;11.188;2023-02-28T04:34:51;4.70;99.90
32865;DHT22;19219;44.500;11.188;2023-02-28T04:37:17;4.70;99.90
32865;DHT22;19219;44.500;11.188;2023-02-28T04:39:43;4.60;99.90
32865;DHT22;19219;44.500;11.188;2023-02-28T04:42:09;4.60;99.90
32865;DHT22;19219;44.500;11.188;2023-02-28T04:44:35;4.60;99.90
32865;DHT22;19219;44.500;11.188;2023-02-28T04:47:01;4.70;99.90
32865;DHT22;19219;44.500;11.188;2023-02-28T04:49:27;4.60;99.90
32865;DHT22;19219;44.500;11.188;2023-02-28T04:51:53;4.60;99.90
32865;DHT22;19219;44.500;11.188;2023-02-28T04:54:19;4.60;99.90
32865;DHT22;19219;44.500;11.188;2023-02-28T04:56:45;4.60;99.90
32865;DHT22;19219;44.500;11.188;2023-02-28T04:59:10;4.70;99.90
32865;DHT22;19219;44.500;11.188;2023-02-28T05:01:36;4.70;99.90
32865;DHT22;19219;44.500;11.188;2023-02-28T05:04:03;4.70;99.90
32865;DHT22;19219;44.500;11.188;2023-02-28T05:06:31;4.70;99.90
32865;DHT22;19219;44.500;11.188;2023-02-28T05:08:57;4.70;99.90
32865;DHT22;19219;44.500;11.188;2023-02-28T05:11:28;4.70;99.90
32865;DHT22;19219;44.500;11.188;2023-02-28T05:14:00;4.70;99.90
32865;DHT22;19219;44.500;11.188;2023-02-28T05:16:26;4.70;99.90
32865;DHT22;19219;44.500;11.188;2023-02-28T05:18:52;4.70;99.90
32865;DHT22;19219;44.500;11.188;2023-02-28T05:21:29;4.70;99.90
32865;DHT22;19219;44.500;11.188;2023-02-28T05:23:57;4.60;99.90
32865;DHT22;19219;44.500;11.188;2023-02-28T05:26:24;4.60;99.90
32865;DHT22;19219;44.500;11.188;2023-02-28T05:28:50;4.60;99.90
32865;DHT22;19219;44.500;11.188;2023-02-28T05:31:16;4.60;99.90
32865;DHT22;19219;44.500;11.188;2023-02-28T05:33:42;4.70;99.90
32865;DHT22;19219;44.500;11.188;2023-02-28T05:36:09;4.60;99.90
32865;DHT22;19219;44.500;11.188;2023-02-28T05:38:35;4.60;99.90
32865;DHT22;19219;44.500;11.188;2023-02-28T05:41:08;4.60;99.90
32865;DHT22;19219;44.500;11.188;2023-02-28T05:43:35;4.60;99.90
32865;DHT22;19219;44.500;11.188;2023-02-28T05:46:04;4.60;99.90
32865;DHT22;19219;44.500;11.188;2023-02-28T05:48:31;4.60;99.90
32865;DHT22;19219;44.500;11.188;2023-02-28T05:50:57;4.70;99.90
32865;DHT22;19219;44.500;11.188;2023-02-28T05:53:23;4.70;99.90
32865;DHT22;19219;44.500;11.188;2023-02-28T05:55:49;4.70;99.90
32865;DHT22;19219;44.500;11.188;2023-02-28T05:58:14;4.70;99.90
32865;DHT22;19219;44.500;11.188;2023-02-28T06:00:40;4.70;99.90
32865;DHT22;19219;44.500;11.188;2023-02-28T06:03:05;4.60;99.90
32865;DHT22;19219;44.500;11.188;2023-02-28T06:05:31;4.60;99.90
32865;DHT22;19219;44.500;11.188;2023-02-28T06:07:57;4.60;99.90
32865;DHT22;19219;44.500;11.188;2023-02-28T06:10:23;4.50;99.90
32865;DHT22;19219;44.500;11.188;2023-02-28T06:12:49;4.50;99.90
32865;DHT22;19219;44.500;11.188;2023-02-28T06:15:15;4.60;99.90
32865;DHT22;19219;44.500;11.188;2023-02-28T06:17:42;4.60;99.90
32865;DHT22;19219;44.500;11.188;2023-02-28T06:20:10;4.60;99.90
32865;DHT22;19219;44.500;11.188;2023-02-28T06:22:38;4.60;99.90
32865;DHT22;19219;44.500;11.188;2023-02-28T06:25:06;4.60;99.90
32865;DHT22;19219;44.500;11.188;2023-02-28T06:27:33;4.50;99.90
32865;DHT22;19219;44.500;11.188;2023-02-28T06:29:59;4.50;99.90
32865;DHT22;19219;44.500;11.188;2023-02-28T06:32:25;4.50;99.90
32865;DHT22;19219;44.500;11.188;2023-02-28T06:34:51;4.50;99.90
32865;DHT22;19219;44.500;11.188;2023-02-28T06:37:17;4.40;99.90
32865;DHT22;19219;44.500;11.188;2023-02-28T06:39:43;4.40;99.90
32865;DHT22;19219;44.500;11.188;2023-02-28T06:42:09;4.30;99.90
32865;DHT22;19219;44.500;11.188;2023-02-28T06:44:35;4.40;99.90
32865;DHT22;19219;44.500;11.188;2023-02-28T06:47:02;4.20;99.90
32865;DHT22;19219;44.500;11.188;2023-02-28T06:49:32;4.30;99.90
32865;DHT22;19219;44.500;11.188;2023-02-28T06:51:58;4.20;99.90
32865;DHT22;19219;44.500;11.188;2023-02-28T06:54:24;4.10;99.90
32865;DHT22;19219;44.500;11.188;2023-02-28T06:56:50;4.00;99.90
32865;DHT22;19219;44.500;11.188;2023-02-28T06:59:16;4.00;99.90
32865;DHT22;19219;44.500;11.188;2023-02-28T07:01:42;4.00;99.90
32865;DHT22;19219;44.500;11.188;2023-02-28T07:04:08;4.10;99.90
32865;DHT22;19219;44.500;11.188;2023-02-28T07:06:34;4.20;99.90
32865;DHT22;19219;44.500;11.188;2023-02-28T07:09:00;4.20;99.90
32865;DHT22;19219;44.500;11.188;2023-02-28T07:11:26;4.20;99.90
32865;DHT22;19219;44.500;11.188;2023-02-28T07:13:54;4.30;99.90
32865;DHT22;19219;44.500;11.188;2023-02-28T07:16:20;4.30;99.90
32865;DHT22;19219;44.500;11.188;2023-02-28T07:18:45;4.30;99.90
32865;DHT22;19219;44.500;11.188;2023-02-28T07:21:11;4.30;99.90
32865;DHT22;19219;44.500;11.188;2023-02-28T07:23:38;4.40;99.90
32865;DHT22;19219;44.500;11.188;2023-02-28T07:26:05;4.40;99.90
32865;DHT22;19219;44.500;11.188;2023-02-28T07:28:32;4.40;99.90
32865;DHT22;19219;44.500;11.188;2023-02-28T07:31:05;4.40;99.90
32865;DHT22;19219;44.500;11.188;2023-02-28T07:33:31;4.50;99.90
32865;DHT22;19219;44.500;11.188;2023-02-28T07:36:05;4.50;99.90
32865;DHT22;19219;44.500;11.188;2023-02-28T07:38:34;4.60;99.90
32865;DHT22;19219;44.500;11.188;2023-02-28T07:41:01;4.60;99.90
32865;DHT22;19219;44.500;11.188;2023-02-28T07:43:30;4.60;99.90
32865;DHT22;19219;44.500;11.188;2023-02-28T07:46:00;4.60;99.90
32865;DHT22;19219;44.500;11.188;2023-02-28T07:48:26;4.50;99.90
32865;DHT22;19219;44.500;11.188;2023-02-28T07:50:56;4.60;99.90
32865;DHT22;19219;44.500;11.188;2023-02-28T07:53:22;4.60;99.90
32865;DHT22;19219;44.500;11.188;2023-02-28T07:55:47;4.60;99.90
32865;DHT22;19219;44.500;11.188;2023-02-28T07:58:13;4.70;99.90
32865;DHT22;19219;44.500;11.188;2023-02-28T08:00:39;4.70;99.90
32865;DHT22;19219;44.500;11.188;2023-02-28T08:03:04;4.70;99.90
32865;DHT22;19219;44.500;11.188;2023-02-28T08:05:30;4.80;99.90
32865;DHT22;19219;44.500;11.188;2023-02-28T08:07:56;4.80;99.90
32865;DHT22;19219;44.500;11.188;2023-02-28T08:10:22;4.70;99.90
32865;DHT22;19219;44.500;11.188;2023-02-28T08:12:48;4.80;99.90
32865;DHT22;19219;44.500;11.188;2023-02-28T08:15:13;4.80;99.90
32865;DHT22;19219;44.500;11.188;2023-02-28T08:17:39;4.90;99.90
32865;DHT22;19219;44.500;11.188;2023-02-28T08:20:05;4.80;99.90
32865;DHT22;19219;44.500;11.188;2023-02-28T08:22:31;4.90;99.90
32865;DHT22;19219;44.500;11.188;2023-02-28T08:24:57;4.90;99.90
32865;DHT22;19219;44.500;11.188;2023-02-28T08:27:23;4.90;99.90
32865;DHT22;19219;44.500;11.188;2023-02-28T08:29:48;5.00;99.90
32865;DHT22;19219;44.500;11.188;2023-02-28T08:32:14;5.10;99.90
32865;DHT22;19219;44.500;11.188;2023-02-28T08:34:40;5.10;99.90
32865;DHT22;19219;44.500;11.188;2023-02-28T08:37:06;5.10;99.90
32865;DHT22;19219;44.500;11.188;2023-02-28T08:39:34;5.20;99.90
32865;DHT22;19219;44.500;11.188;2023-02-28T08:42:02;5.20;99.90
32865;DHT22;19219;44.500;11.188;2023-02-28T08:44:28;5.20;99.90
32865;DHT22;19219;44.500;11.188;2023-02-28T08:46:53;5.20;99.90
32865;DHT22;19219;44.500;11.188;2023-02-28T08:49:19;5.10;99.90
32865;DHT22;19219;44.500;11.188;2023-02-28T08:51:45;5.10;99.90
32865;DHT22;19219;44.500;11.188;2023-02-28T08:54:10;5.20;99.90
32865;DHT22;19219;44.500;11.188;2023-02-28T08:56:38;5.30;99.90
32865;DHT22;19219;44.500;11.188;2023-02-28T08:59:04;5.30;99.90
32865;DHT22;19219;44.500;11.188;2023-02-28T09:01:30;5.40;99.90
32865;DHT22;19219;44.500;11.188;2023-02-28T09:03:57;5.30;99.90
32865;DHT22;19219;44.500;11.188;2023-02-28T09:06:25;5.30;99.90
32865;DHT22;19219;44.500;11.188;2023-02-28T09:08:52;5.60;99.90
32865;DHT22;19219;44.500;11.188;2023-02-28T09:11:18;5.70;99.90
32865;DHT22;19219;44.500;11.188;2023-02-28T09:13:44;5.80;99.90
32865;DHT22;19219;44.500;11.188;2023-02-28T09:16:12;6.00;99.90
32865;DHT22;19219;44.500;11.188;2023-02-28T09:18:38;6.10;99.90
32865;DHT22;19219;44.500;11.188;2023-02-28T09:21:09;6.20;99.90
32865;DHT22;19219;44.500;11.188;2023-02-28T09:23:35;6.00;99.90
32865;DHT22;19219;44.500;11.188;2023-02-28T09:26:04;5.90;99.90
32865;DHT22;19219;44.500;11.188;2023-02-28T09:28:30;6.00;99.90
32865;DHT22;19219;44.500;11.188;2023-02-28T09:30:55;6.10;99.90
32865;DHT22;19219;44.500;11.188;2023-02-28T09:33:23;6.00;99.90
32865;DHT22;19219;44.500;11.188;2023-02-28T09:35:49;6.10;99.90
32865;DHT22;19219;44.500;11.188;2023-02-28T09:38:16;6.10;99.90
32865;DHT22;19219;44.500;11.188;2023-02-28T09:40:53;6.10;99.90
32865;DHT22;19219;44.500;11.188;2023-02-28T09:43:23;6.10;99.90
32865;DHT22;19219;44.500;11.188;2023-02-28T09:46:08;6.00;99.90
32865;DHT22;19219;44.500;11.188;2023-02-28T09:48:42;6.00;99.90
32865;DHT22;19219;44.500;11.188;2023-02-28T09:53:53;6.00;99.90
32865;DHT22;19219;44.500;11.188;2023-02-28T09:56:22;6.10;99.90
32865;DHT22;19219;44.500;11.188;2023-02-28T09:59:13;6.10;99.90
32865;DHT22;19219;44.500;11.188;2023-02-28T10:05:00;6.30;99.90
32865;DHT22;19219;44.500;11.188;2023-02-28T10:10:07;6.30;99.90
32865;DHT22;19219;44.500;11.188;2023-02-28T10:12:44;6.30;99.90
32865;DHT22;19219;44.500;11.188;2023-02-28T10:15:14;6.50;99.90
32865;DHT22;19219;44.500;11.188;2023-02-28T10:17:42;6.60;99.90
32865;DHT22;19219;44.500;11.188;2023-02-28T10:20:15;6.70;99.90
32865;DHT22;19219;44.500;11.188;2023-02-28T10:25:29;6.70;99.90
32865;DHT22;19219;44.500;11.188;2023-02-28T10:28:09;6.60;99.90
32865;DHT22;19219;44.500;11.188;2023-02-28T10:30:42;6.50;99.90
32865;DHT22;19219;44.500;11.188;2023-02-28T10:35:45;6.70;99.90
32865;DHT22;19219;44.500;11.188;2023-02-28T10:38:21;6.90;99.90
32865;DHT22;19219;44.500;11.188;2023-02-28T10:40:47;6.80;99.90
32865;DHT22;19219;44.500;11.188;2023-02-28T10:45:38;6.60;99.90
32865;DHT22;19219;44.500;11.188;2023-02-28T10:48:29;6.50;99.90
32865;DHT22;19219;44.500;11.188;2023-02-28T10:50:53;6.70;99.90
32865;DHT22;19219;44.500;11.188;2023-02-28T10:53:27;6.80;99.90
32865;DHT22;19219;44.500;11.188;2023-02-28T10:55:57;7.00;99.90
32865;DHT22;19219;44.500;11.188;2023-02-28T10:58:25;7.20;99.90
32865;DHT22;19219;44.500;11.188;2023-02-28T11:00:51;7.20;99.90
32865;DHT22;19219;44.500;11.188;2023-02-28T11:03:34;6.90;99.90
32865;DHT22;19219;44.500;11.188;2023-02-28T11:06:13;6.90;99.90
32865;DHT22;19219;44.500;11.188;2023-02-28T11:08:48;7.10;99.90
32865;DHT22;19219;44.500;11.188;2023-02-28T11:11:16;7.20;99.90
32865;DHT22;19219;44.500;11.188;2023-02-28T11:13:44;7.00;99.90
32865;DHT22;19219;44.500;11.188;2023-02-28T11:16:12;7.00;99.90
32865;DHT22;19219;44.500;11.188;2023-02-28T11:21:37;7.20;99.90
32865;DHT22;19219;44.500;11.188;2023-02-28T11:24:26;7.30;99.90
32865;DHT22;19219;44.500;11.188;2023-02-28T11:26:52;7.30;99.90
32865;DHT22;19219;44.500;11.188;2023-02-28T11:34:35;7.60;99.90
32865;DHT22;19219;44.500;11.188;2023-02-28T11:37:02;7.60;99.90
32865;DHT22;19219;44.500;11.188;2023-02-28T11:39:31;7.70;99.90
32865;DHT22;19219;44.500;11.188;2023-02-28T11:42:10;7.60;99.90
32865;DHT22;19219;44.500;11.188;2023-02-28T11:53:19;7.50;99.90
32865;DHT22;19219;44.500;11.188;2023-02-28T11:56:51;7.50;99.90
32865;DHT22;19219;44.500;11.188;2023-02-28T12:28:19;7.80;99.90
32865;DHT22;19219;44.500;11.188;2023-02-28T12:31:19;8.00;99.90
32865;DHT22;19219;44.500;11.188;2023-02-28T12:34:06;8.10;99.90
32865;DHT22;19219;44.500;11.188;2023-02-28T12:36:35;8.00;99.90
32865;DHT22;19219;44.500;11.188;2023-02-28T12:39:23;7.80;99.90
32865;DHT22;19219;44.500;11.188;2023-02-28T12:42:00;7.70;99.90
32865;DHT22;19219;44.500;11.188;2023-02-28T12:44:39;7.60;99.90
32865;DHT22;19219;44.500;11.188;2023-02-28T12:47:15;7.50;99.90
32865;DHT22;19219;44.500;11.188;2023-02-28T12:50:06;7.60;99.90
32865;DHT22;19219;44.500;11.188;2023-02-28T12:52:58;7.70;99.90
32865;DHT22;19219;44.500;11.188;2023-02-28T12:55:43;7.80;99.90
32865;DHT22;19219;44.500;11.188;2023-02-28T12:58:44;7.90;99.90
32865;DHT22;19219;44.500;11.188;2023-02-28T13:09:30;8.10;99.90
32865;DHT22;19219;44.500;11.188;2023-02-28T13:11:56;8.10;99.90
32865;DHT22;19219;44.500;11.188;2023-02-28T13:14:37;7.90;99.90
32865;DHT22;19219;44.500;11.188;2023-02-28T13:19:34;7.80;99.90
32865;DHT22;19219;44.500;11.188;2023-02-28T13:22:01;7.80;99.90
32865;DHT22;19219;44.500;11.188;2023-02-28T13:24:47;7.80;99.90
32865;DHT22;19219;44.500;11.188;2023-02-28T13:27:21;7.70;99.90
32865;DHT22;19219;44.500;11.188;2023-02-28T13:29:53;7.60;99.90
32865;DHT22;19219;44.500;11.188;2023-02-28T13:47:52;7.60;99.90
32865;DHT22;19219;44.500;11.188;2023-02-28T13:50:34;7.70;99.90
32865;DHT22;19219;44.500;11.188;2023-02-28T14:04:14;7.60;99.90
32865;DHT22;19219;44.500;11.188;2023-02-28T14:06:48;7.60;99.90
32865;DHT22;19219;44.500;11.188;2023-02-28T14:11:54;7.40;99.90
32865;DHT22;19219;44.500;11.188;2023-02-28T14:17:03;7.40;99.90
32865;DHT22;19219;44.500;11.188;2023-02-28T14:19:31;7.40;99.90
32865;DHT22;19219;44.500;11.188;2023-02-28T14:27:45;7.50;99.90
32865;DHT22;19219;44.500;11.188;2023-02-28T14:38:29;7.70;99.90
32865;DHT22;19219;44.500;11.188;2023-02-28T14:40:58;7.70;99.90
32865;DHT22;19219;44.500;11.188;2023-02-28T14:43:27;7.70;99.90
32865;DHT22;19219;44.500;11.188;2023-02-28T14:45:56;7.80;99.90
32865;DHT22;19219;44.500;11.188;2023-02-28T14:48:23;7.70;99.90
32865;DHT22;19219;44.500;11.188;2023-02-28T14:50:55;7.80;99.90
32865;DHT22;19219;44.500;11.188;2023-02-28T14:53:24;7.90;99.90
32865;DHT22;19219;44.500;11.188;2023-02-28T14:55:51;7.90;99.90
32865;DHT22;19219;44.500;11.188;2023-02-28T15:00:54;7.80;99.90
32865;DHT22;19219;44.500;11.188;2023-02-28T15:08:34;7.70;99.90
32865;DHT22;19219;44.500;11.188;2023-02-28T15:11:05;7.70;99.90
32865;DHT22;19219;44.500;11.188;2023-02-28T15:13:42;7.70;99.90
32865;DHT22;19219;44.500;11.188;2023-02-28T15:16:16;7.60;99.90
32865;DHT22;19219;44.500;11.188;2023-02-28T15:19:22;7.60;99.90
32865;DHT22;19219;44.500;11.188;2023-02-28T15:21:52;7.60;99.90
32865;DHT22;19219;44.500;11.188;2023-02-28T15:27:00;7.70;99.90
32865;DHT22;19219;44.500;11.188;2023-02-28T15:29:41;7.70;99.90
32865;DHT22;19219;44.500;11.188;2023-02-28T15:32:33;7.50;99.90
32865;DHT22;19219;44.500;11.188;2023-02-28T15:37:54;7.60;99.90
32865;DHT22;19219;44.500;11.188;2023-02-28T15:40:27;7.60;99.90
32865;DHT22;19219;44.500;11.188;2023-02-28T15:45:47;7.50;99.90
32865;DHT22;19219;44.500;11.188;2023-02-28T15:48:24;7.50;99.90
32865;DHT22;19219;44.500;11.188;2023-02-28T15:50:53;7.50;99.90
32865;DHT22;19219;44.500;11.188;2023-02-28T15:53:23;7.50;99.90
32865;DHT22;19219;44.500;11.188;2023-02-28T15:56:00;7.50;99.90
32865;DHT22;19219;44.500;11.188;2023-02-28T15:58:27;7.50;99.90
32865;DHT22;19219;44.500;11.188;2023-02-28T16:01:23;7.50;99.90
32865;DHT22;19219;44.500;11.188;2023-02-28T16:03:52;7.40;99.90
32865;DHT22;19219;44.500;11.188;2023-02-28T16:08:47;7.50;99.90
32865;DHT22;19219;44.500;11.188;2023-02-28T16:11:14;7.40;99.90
32865;DHT22;19219;44.500;11.188;2023-02-28T16:13:40;7.40;99.90
32865;DHT22;19219;44.500;11.188;2023-02-28T16:16:06;7.40;99.90
32865;DHT22;19219;44.500;11.188;2023-02-28T16:18:32;7.30;99.90
32865;DHT22;19219;44.500;11.188;2023-02-28T16:20:57;7.30;99.90
32865;DHT22;19219;44.500;11.188;2023-02-28T16:23:23;7.20;99.90
32865;DHT22;19219;44.500;11.188;2023-02-28T16:25:49;7.20;99.90
32865;DHT22;19219;44.500;11.188;2023-02-28T16:28:41;7.30;99.90
32865;DHT22;19219;44.500;11.188;2023-02-28T16:31:07;7.30;99.90
32865;DHT22;19219;44.500;11.188;2023-02-28T16:33:33;7.30;99.90
32865;DHT22;19219;44.500;11.188;2023-02-28T16:36:00;7.30;99.90
32865;DHT22;19219;44.500;11.188;2023-02-28T16:38:25;7.20;99.90
32865;DHT22;19219;44.500;11.188;2023-02-28T16:40:53;7.30;99.90
32865;DHT22;19219;44.500;11.188;2023-02-28T16:43:23;7.20;99.90
32865;DHT22;19219;44.500;11.188;2023-02-28T16:45:55;7.30;99.90
32865;DHT22;19219;44.500;11.188;2023-02-28T16:48:25;7.30;99.90
32865;DHT22;19219;44.500;11.188;2023-02-28T16:50:51;7.30;99.90
32865;DHT22;19219;44.500;11.188;2023-02-28T16:53:16;7.20;99.90
32865;DHT22;19219;44.500;11.188;2023-02-28T16:55:42;7.10;99.90
32865;DHT22;19219;44.500;11.188;2023-02-28T16:58:15;7.20;99.90
32865;DHT22;19219;44.500;11.188;2023-02-28T17:00:42;7.10;99.90
32865;DHT22;19219;44.500;11.188;2023-02-28T17:03:24;7.10;99.90
32865;DHT22;19219;44.500;11.188;2023-02-28T17:05:50;7.10;99.90
32865;DHT22;19219;44.500;11.188;2023-02-28T17:08:16;7.10;99.90
32865;DHT22;19219;44.500;11.188;2023-02-28T17:10:42;7.10;99.90
32865;DHT22;19219;44.500;11.188;2023-02-28T17:13:08;7.00;99.90
32865;DHT22;19219;44.500;11.188;2023-02-28T17:15:35;7.00;99.90
32865;DHT22;19219;44.500;11.188;2023-02-28T17:18:02;7.10;99.90
32865;DHT22;19219;44.500;11.188;2023-02-28T17:20:27;7.10;99.90
32865;DHT22;19219;44.500;11.188;2023-02-28T17:22:53;7.00;99.90
32865;DHT22;19219;44.500;11.188;2023-02-28T17:25:20;7.00;99.90
32865;DHT22;19219;44.500;11.188;2023-02-28T17:27:46;6.90;99.90
32865;DHT22;19219;44.500;11.188;2023-02-28T17:30:18;6.90;99.90
32865;DHT22;19219;44.500;11.188;2023-02-28T17:32:43;6.80;99.90
32865;DHT22;19219;44.500;11.188;2023-02-28T17:35:09;6.80;99.90
32865;DHT22;19219;44.500;11.188;2023-02-28T17:37:35;6.70;99.90
32865;DHT22;19219;44.500;11.188;2023-02-28T17:40:01;6.80;99.90
32865;DHT22;19219;44.500;11.188;2023-02-28T17:42:27;6.80;99.90
32865;DHT22;19219;44.500;11.188;2023-02-28T17:44:52;6.70;99.90
32865;DHT22;19219;44.500;11.188;2023-02-28T17:47:18;6.70;99.90
32865;DHT22;19219;44.500;11.188;2023-02-28T17:49:44;6.70;99.90
32865;DHT22;19219;44.500;11.188;2023-02-28T17:52:10;6.70;99.90
32865;DHT22;19219;44.500;11.188;2023-02-28T17:54:35;6.70;99.90
32865;DHT22;19219;44.500;11.188;2023-02-28T17:57:01;6.70;99.90
32865;DHT22;19219;44.500;11.188;2023-02-28T17:59:27;6.80;99.90
32865;DHT22;19219;44.500;11.188;2023-02-28T18:02:00;6.80;99.90
32865;DHT22;19219;44.500;11.188;2023-02-28T18:04:25;6.70;99.90
32865;DHT22;19219;44.500;11.188;2023-02-28T18:06:53;6.70;99.90
32865;DHT22;19219;44.500;11.188;2023-02-28T18:09:21;6.60;99.90
32865;DHT22;19219;44.500;11.188;2023-02-28T18:11:50;6.60;99.90
32865;DHT22;19219;44.500;11.188;2023-02-28T18:14:18;6.60;99.90
32865;DHT22;19219;44.500;11.188;2023-02-28T18:16:45;6.70;99.90
32865;DHT22;19219;44.500;11.188;2023-02-28T18:19:13;6.60;99.90
32865;DHT22;19219;44.500;11.188;2023-02-28T18:21:47;6.60;99.90
32865;DHT22;19219;44.500;11.188;2023-02-28T18:24:14;6.70;99.90
32865;DHT22;19219;44.500;11.188;2023-02-28T18:26:41;6.70;99.90
32865;DHT22;19219;44.500;11.188;2023-02-28T18:29:07;6.80;99.90
32865;DHT22;19219;44.500;11.188;2023-02-28T18:31:34;6.70;99.90
32865;DHT22;19219;44.500;11.188;2023-02-28T18:34:00;6.70;99.90
32865;DHT22;19219;44.500;11.188;2023-02-28T18:36:27;6.70;99.90
32865;DHT22;19219;44.500;11.188;2023-02-28T18:38:53;6.70;99.90